Bei Facebook empfehlenBei Twitter postenGoogle plusPinterest

Das Wetter im Erzgebirge am 29.05.2017

Wetter und Klima am 29.05.2017 Holzhau im Erzgebirge (630m ü.NN)
Letzte gemessene Temperatur und Uhrzeit der Messung23:45:00 Uhr16.40 °C
Temperatur (Maximum / Höchstwert) und Uhrzeit der Messung16:15:00 Uhr30.80 °C
Temperatur (Minimum / Tiefstwert) und Uhrzeit der Messung05:45:0011.30 °C
Errechneter Absolutwert der Temperaturschwankungen zwischen Tmin und Tmax des Tages19.50 K
Errechnete Tagesmitteltemperatur21.89271 °C
Gesamt - Niederschlag des Tages (in flüssiger Form)0.00 Liter / m²
Luftdruck (Maximum / Höchstwert) und Zeitpunkt der Messung00:00:00 Uhr1016.40 hPa
Luftdruck (Minimum / Tiefstwert) und Zeitpunkt der Messung19:45:00 Uhr1011.60 hPa
Errechneter Absolutwert der Luftdruckschwankungen des Tages4.80 hPa
Höchste gemessene Windgeschwindigkeit und Uhrzeit der Messung17:00:00 Uhr28.44 km/h
Errechnete Windhäufigkeit in Relation zu den Messwerten des Tages3.12500 %
Niedrigste Windkühle (Windchill) und Zeitpunkt der Messung05:45:00 Uhr11.30 °C
Taupunkt (Maximum / Höchstwert) und Uhrzeit der Messung15:45:00 Uhr15.10 °C
Taupunkt (Minimum / Tiefstwert) und Uhrzeit der Messung04:30:007.20 °C
Anzahl der automatisch eingelesenen Messwerte 96

Detaillierte Wetter- und Klima- Messwerte für den 29.05.2017 in Holzhau im Erzgebirge (630m ü.NN)
ZeitTemperaturLuftdruckRel. LuftfeuchteWindWindrichtungWindchillTaupunktNiederschlag l/m²
23:45:0016.40 °C1012.00 hPa76.00 %12.20 °C 
23:30:0016.60 °C1011.90 hPa75.00 %12.20 °C 
23:15:0016.80 °C1012.00 hPa74.00 %12.10 °C 
23:00:0017.10 °C1012.20 hPa73.00 %12.20 °C 
22:45:0017.40 °C1012.10 hPa72.00 %12.30 °C 
22:30:0017.60 °C1012.20 hPa72.00 %12.50 °C 
22:15:0017.90 °C1012.20 hPa71.00 %12.60 °C 
22:00:0018.00 °C1012.20 hPa69.00 %12.20 °C 
21:45:0018.70 °C1012.20 hPa66.00 %12.20 °C 
21:30:0019.70 °C1012.00 hPa63.00 %12.50 °C 
21:15:0021.10 °C1011.90 hPa59.00 %12.80 °C 
21:00:0022.50 °C1011.90 hPa56.00 %13.30 °C 
20:45:0023.90 °C1011.90 hPa52.00 %13.40 °C 
20:30:0025.20 °C1011.80 hPa50.00 %14.00 °C 
20:15:0026.10 °C1011.90 hPa47.00 %13.90 °C 
20:00:0026.90 °C1011.70 hPa46.00 %14.30 °C 
19:45:0027.60 °C1011.60 hPa45.00 %14.60 °C 
19:30:0028.10 °C1011.60 hPa43.00 %14.30 °C 
19:15:0027.90 °C1011.70 hPa43.00 %14.20 °C 
19:00:0028.50 °C1011.60 hPa42.00 %14.30 °C 
18:45:0028.90 °C1011.60 hPa40.00 %13.90 °C 
18:30:0029.20 °C1011.70 hPa40.00 %14.20 °C 
18:15:0029.50 °C1011.70 hPa39.00 %14.10 °C 
18:00:0029.40 °C1011.70 hPa40.00 %14.40 °C 
17:45:0029.30 °C1012.10 hPa40.00 %14.30 °C 
17:30:0029.40 °C1012.20 hPa40.00 %11.52 km/hSSW29.40 °C14.40 °C 
17:15:0029.40 °C1012.20 hPa40.00 %14.40 °C 
17:00:0029.60 °C1012.30 hPa38.00 %28.44 km/hSW32.00 °C13.80 °C 
16:45:0030.10 °C1012.40 hPa38.00 %14.20 °C 
16:30:0030.20 °C1012.50 hPa37.00 %13.90 °C 
16:15:0030.80 °C1012.70 hPa38.00 %14.80 °C 
16:00:0030.50 °C1012.80 hPa38.00 %14.60 °C 
15:45:0030.60 °C1012.80 hPa39.00 %15.10 °C 
15:30:0029.90 °C1013.10 hPa38.00 %14.00 °C 
15:15:0029.60 °C1013.10 hPa40.00 %14.60 °C 
15:00:0030.10 °C1013.10 hPa37.00 %13.80 °C 
14:45:0030.30 °C1013.10 hPa38.00 %14.40 °C 
14:30:0030.50 °C1013.30 hPa38.00 %14.60 °C 
14:15:0030.20 °C1013.20 hPa39.00 %14.70 °C 
14:00:0030.30 °C1013.20 hPa39.00 %14.80 °C 
13:45:0030.30 °C1013.60 hPa39.00 %14.80 °C 
13:30:0029.30 °C1013.50 hPa40.00 %14.30 °C 
13:15:0028.30 °C1013.80 hPa40.00 %13.40 °C 
13:00:0028.10 °C1013.90 hPa43.00 %14.30 °C 
12:45:0028.40 °C1013.90 hPa40.00 %13.50 °C 
12:30:0029.00 °C1013.80 hPa39.00 %13.60 °C 
12:15:0030.40 °C1013.70 hPa38.00 %14.50 °C 
12:00:0029.60 °C1013.90 hPa39.00 %14.20 °C 
11:45:0028.90 °C1013.90 hPa40.00 %13.90 °C 
11:30:0028.40 °C1013.90 hPa40.00 %13.50 °C 
11:15:0027.90 °C1014.20 hPa41.00 %13.40 °C 
11:00:0026.90 °C1014.20 hPa42.00 %12.90 °C 
10:45:0026.10 °C1014.20 hPa42.00 %12.20 °C 
10:30:0025.90 °C1014.30 hPa43.00 %12.40 °C 
10:15:0026.40 °C1014.20 hPa42.00 %12.50 °C 
10:00:0026.60 °C1014.10 hPa43.00 %13.00 °C 
09:45:0026.30 °C1014.20 hPa44.00 %13.10 °C 
09:30:0025.90 °C1014.00 hPa43.00 %12.40 °C 
09:15:0025.80 °C1014.00 hPa45.00 %13.00 °C 
09:00:0025.50 °C1013.80 hPa45.00 %12.70 °C 
08:45:0024.50 °C1014.00 hPa49.00 %13.10 °C 
08:30:0023.60 °C1013.90 hPa56.00 %14.30 °C 
08:15:0022.60 °C1014.10 hPa59.00 %14.20 °C 
08:00:0021.80 °C1014.10 hPa60.00 %20.88 km/hOSO23.10 °C13.70 °C 
07:45:0020.80 °C1014.00 hPa62.00 %13.30 °C 
07:30:0019.10 °C1014.10 hPa66.00 %12.60 °C 
07:15:0016.60 °C1014.30 hPa71.00 %11.30 °C 
07:00:0013.50 °C1014.10 hPa76.00 %9.40 °C 
06:45:0012.80 °C1014.20 hPa77.00 %8.90 °C 
06:30:0012.10 °C1014.20 hPa78.00 %8.40 °C 
06:15:0011.60 °C1014.10 hPa78.00 %7.90 °C 
06:00:0011.50 °C1014.10 hPa78.00 %7.80 °C 
05:45:0011.30 °C1014.20 hPa77.00 %7.40 °C 
05:30:0011.30 °C1014.00 hPa77.00 %7.40 °C 
05:15:0011.30 °C1014.00 hPa77.00 %7.40 °C 
05:00:0011.40 °C1014.00 hPa76.00 %7.30 °C 
04:45:0011.40 °C1014.10 hPa76.00 %7.30 °C 
04:30:0011.30 °C1014.20 hPa76.00 %7.20 °C 
04:15:0011.70 °C1014.20 hPa75.00 %7.40 °C 
04:00:0011.90 °C1014.30 hPa74.00 %7.40 °C 
03:45:0012.20 °C1014.40 hPa74.00 %7.70 °C 
03:30:0011.90 °C1014.70 hPa75.00 %7.60 °C 
03:15:0011.80 °C1014.70 hPa74.00 %7.30 °C 
03:00:0012.10 °C1014.90 hPa74.00 %7.60 °C 
02:45:0012.50 °C1014.90 hPa73.00 %7.80 °C 
02:30:0012.90 °C1015.00 hPa72.00 %8.00 °C 
02:15:0013.00 °C1015.00 hPa72.00 %8.10 °C 
02:00:0013.20 °C1015.20 hPa71.00 %8.10 °C 
01:45:0013.40 °C1015.30 hPa71.00 %8.30 °C 
01:30:0013.60 °C1015.50 hPa71.00 %8.40 °C 
01:15:0013.60 °C1015.70 hPa70.00 %8.20 °C 
01:00:0013.80 °C1015.80 hPa69.00 %8.20 °C 
00:45:0014.30 °C1016.10 hPa67.00 %8.30 °C 
00:30:0015.00 °C1016.20 hPa65.00 %8.50 °C 
00:15:0015.20 °C1016.30 hPa65.00 %8.70 °C 
00:00:0015.30 °C1016.40 hPa65.00 %8.80 °C 

Permanenter Link zu dieser Seite: Wetter im Erzgebirge am 29.05.2017
Performance-Info: Die Erstellung der Seite / Statistik(en) / Tabelle(n) erforderte 5 Datenbankserver-Abfrage(n) und dauerte 123 Millisekunden. (Dieser Messwert ist von der Gesamt-Auslastung des Servers abhängig.)
Erzgebirge - Wetter | Erzgebirge - Wetter (Mobilgeräte) | Komplette Klimadatenbank